Time;durP1;ratioP1;P1;durP2;ratioP2;P2;SDS_P1;SDS_P2;PMS_P1;PMS_P2;Temp;Humidity;BMP_temperature;BMP_pressure;BME280_temperature;BME280_humidity;BME280_pressure;Samples;Min_cycle;Max_cycle;Signal;HPM_P1;HPM_P2
2023/05/12 00:00:42;;;;;;;10.20;4.43;;;11.60;69.40;;;;;;6157260;23;20257;-94
2023/05/12 00:03:09;;;;;;;9.13;4.37;;;11.60;68.30;;;;;;6157311;23;20180;-94
2023/05/12 00:05:37;;;;;;;8.80;4.40;;;11.60;68.50;;;;;;6156929;23;20694;-93
2023/05/12 00:08:05;;;;;;;9.70;4.63;;;11.60;69.20;;;;;;6157660;23;20653;-94
2023/05/12 00:10:34;;;;;;;12.23;4.30;;;11.60;73.40;;;;;;6159495;23;20166;-94
2023/05/12 00:13:01;;;;;;;8.30;4.50;;;11.50;73.30;;;;;;6159132;23;20212;-94
2023/05/12 00:15:27;;;;;;;7.47;4.97;;;11.50;95.40;;;;;;6158949;23;20171;-94
2023/05/12 00:17:54;;;;;;;11.10;4.93;;;11.50;76.40;;;;;;6158974;23;20199;-94
2023/05/12 00:20:21;;;;;;;8.07;4.70;;;11.40;78.40;;;;;;6158839;23;20564;-93
2023/05/12 00:22:49;;;;;;;10.83;4.90;;;11.40;78.70;;;;;;6158694;23;20631;-94
2023/05/12 00:25:16;;;;;;;8.50;4.57;;;11.30;79.20;;;;;;6159080;23;20172;-94
2023/05/12 00:27:43;;;;;;;7.73;4.70;;;11.30;83.90;;;;;;6158930;23;20277;-95
2023/05/12 00:30:11;;;;;;;12.30;4.90;;;11.30;85.30;;;;;;6158496;23;20187;-94
2023/05/12 00:32:38;;;;;;;10.23;5.13;;;11.20;89.10;;;;;;6158853;23;20247;-93
2023/05/12 00:35:05;;;;;;;7.47;4.30;;;11.20;88.90;;;;;;6158711;23;20174;-94
2023/05/12 00:37:32;;;;;;;6.30;4.63;;;11.10;91.20;;;;;;6158996;23;20176;-93
2023/05/12 00:40:00;;;;;;;8.33;5.10;;;11.10;91.70;;;;;;6159285;23;20172;-93
2023/05/12 00:42:27;;;;;;;8.43;4.87;;;11.10;92.00;;;;;;6158641;23;20179;-93
2023/05/12 00:44:53;;;;;;;6.87;4.33;;;11.10;92.60;;;;;;6158886;23;20173;-93
2023/05/12 00:47:21;;;;;;;9.83;4.90;;;11.10;92.00;;;;;;6158488;23;20182;-93
2023/05/12 00:49:48;;;;;;;10.70;4.63;;;11.10;94.90;;;;;;6158669;23;20635;-93
2023/05/12 00:52:14;;;;;;;9.67;4.70;;;11.00;95.50;;;;;;6159019;23;20172;-93
2023/05/12 00:54:43;;;;;;;7.63;4.60;;;11.00;96.50;;;;;;6158958;23;20172;-93
2023/05/12 00:57:12;;;;;;;7.20;5.00;;;11.00;99.00;;;;;;6158922;23;20183;-93
2023/05/12 00:59:39;;;;;;;9.67;4.60;;;11.00;99.90;;;;;;6158688;23;20255;-95
2023/05/12 01:02:06;;;;;;;9.60;5.23;;;10.90;99.60;;;;;;6158797;23;20173;-93
2023/05/12 01:04:34;;;;;;;7.40;4.70;;;10.90;99.90;;;;;;6158597;23;20190;-93
2023/05/12 01:07:06;;;;;;;8.23;5.30;;;10.80;99.90;;;;;;6158926;23;20182;-92
2023/05/12 01:09:33;;;;;;;11.23;5.60;;;10.80;99.90;;;;;;6158746;23;20155;-93
2023/05/12 01:11:59;;;;;;;7.43;4.77;;;10.70;99.90;;;;;;6158753;23;20181;-94
2023/05/12 01:14:28;;;;;;;11.17;5.43;;;10.70;99.90;;;;;;6158674;23;20206;-94
2023/05/12 01:16:59;;;;;;;9.33;4.97;;;10.60;99.90;;;;;;6158814;23;20171;-94
2023/05/12 01:19:38;;;;;;;8.83;5.13;;;10.60;99.90;;;;;;6158319;23;20162;-93
2023/05/12 01:22:05;;;;;;;7.17;4.83;;;10.60;99.90;;;;;;6158525;23;20238;-94
2023/05/12 01:24:36;;;;;;;8.73;5.20;;;10.60;99.90;;;;;;6158959;23;20694;-94
2023/05/12 01:27:06;;;;;;;10.90;5.40;;;10.60;99.90;;;;;;6158398;23;20202;-94
2023/05/12 01:29:33;;;;;;;9.73;5.43;;;10.50;99.90;;;;;;6158453;23;20154;-93
2023/05/12 01:32:01;;;;;;;10.53;6.00;;;10.50;99.90;;;;;;6158809;23;20180;-93
2023/05/12 01:34:28;;;;;;;11.73;5.20;;;10.40;99.90;;;;;;6158599;23;20193;-93
2023/05/12 01:36:55;;;;;;;7.33;5.10;;;10.40;99.90;;;;;;6158212;23;20180;-92
2023/05/12 01:39:22;;;;;;;8.83;5.33;;;10.30;99.90;;;;;;6158632;23;20232;-93
2023/05/12 01:41:49;;;;;;;9.40;5.80;;;10.30;99.90;;;;;;6158705;23;20170;-93
2023/05/12 01:44:17;;;;;;;10.53;5.17;;;10.20;99.90;;;;;;6158295;23;20170;-94
2023/05/12 01:46:43;;;;;;;8.80;5.20;;;10.20;99.90;;;;;;6158174;23;20184;-94
2023/05/12 01:49:10;;;;;;;8.60;6.07;;;10.20;99.90;;;;;;6158151;23;20510;-93
2023/05/12 01:51:37;;;;;;;6.93;4.93;;;10.10;99.90;;;;;;6158813;23;20163;-93
2023/05/12 01:54:04;;;;;;;8.40;5.80;;;10.10;99.90;;;;;;6158414;23;20276;-93
2023/05/12 01:56:31;;;;;;;8.13;6.20;;;10.10;99.90;;;;;;6158542;23;20258;-94
2023/05/12 01:58:58;;;;;;;9.00;5.80;;;10.10;99.90;;;;;;6157779;23;20177;-93
2023/05/12 02:01:27;;;;;;;8.73;5.20;;;10.00;99.90;;;;;;6157947;23;20248;-93
2023/05/12 02:03:54;;;;;;;12.67;5.70;;;10.00;99.90;;;;;;6158004;23;20192;-93
2023/05/12 02:06:21;;;;;;;8.97;5.00;;;10.00;99.90;;;;;;6158374;23;20182;-94
2023/05/12 02:08:48;;;;;;;10.57;5.37;;;10.00;99.90;;;;;;6158118;23;20174;-94
2023/05/12 02:11:15;;;;;;;8.70;5.27;;;10.00;99.90;;;;;;6158364;23;20177;-94
2023/05/12 02:13:43;;;;;;;7.13;5.40;;;10.00;99.90;;;;;;6157612;23;20712;-94
2023/05/12 02:16:10;;;;;;;11.77;5.70;;;10.00;99.90;;;;;;6157972;23;20178;-94
2023/05/12 02:18:39;;;;;;;7.87;5.40;;;9.90;99.90;;;;;;6157861;23;20701;-93
2023/05/12 02:21:06;;;;;;;7.87;5.70;;;9.90;99.90;;;;;;6158158;23;20179;-94
2023/05/12 02:23:33;;;;;;;9.87;5.23;;;9.90;99.90;;;;;;6157624;23;20174;-93
2023/05/12 02:26:00;;;;;;;8.67;5.37;;;9.90;99.90;;;;;;6157528;23;20183;-93
2023/05/12 02:28:26;;;;;;;7.63;5.60;;;9.90;99.90;;;;;;6158187;23;20170;-93
2023/05/12 02:30:53;;;;;;;10.57;5.83;;;10.00;99.90;;;;;;6157564;23;20177;-93
2023/05/12 02:33:21;;;;;;;9.53;5.80;;;9.90;99.90;;;;;;6157984;23;20222;-93
2023/05/12 02:35:50;;;;;;;10.37;5.70;;;9.90;99.90;;;;;;6157784;23;20177;-93
2023/05/12 02:38:17;;;;;;;8.97;6.07;;;9.90;99.90;;;;;;6157946;23;20173;-94
2023/05/12 02:40:43;;;;;;;10.60;5.90;;;9.90;99.90;;;;;;6157731;23;20180;-94
2023/05/12 02:43:10;;;;;;;14.43;6.20;;;9.90;99.90;;;;;;6158052;23;20187;-94
2023/05/12 02:45:37;;;;;;;8.50;5.93;;;9.90;99.90;;;;;;6158137;23;20231;-94
2023/05/12 02:48:04;;;;;;;13.13;5.90;;;9.90;99.90;;;;;;6157788;23;20633;-93
2023/05/12 02:50:31;;;;;;;9.77;5.70;;;9.90;99.90;;;;;;6157683;23;20176;-93
2023/05/12 02:52:59;;;;;;;7.10;5.50;;;9.90;99.90;;;;;;6157230;23;20674;-93
2023/05/12 02:55:28;;;;;;;7.50;5.87;;;9.90;99.90;;;;;;6157871;23;20173;-92
2023/05/12 02:57:55;;;;;;;10.50;5.90;;;9.90;99.90;;;;;;6157789;23;20231;-92
2023/05/12 03:00:22;;;;;;;8.97;6.10;;;9.80;99.90;;;;;;6157670;23;20179;-92
2023/05/12 03:02:49;;;;;;;9.20;5.80;;;9.80;99.90;;;;;;6157245;23;20172;-92
2023/05/12 03:05:16;;;;;;;9.67;6.53;;;9.80;99.90;;;;;;6157528;23;20177;-92
2023/05/12 03:07:43;;;;;;;8.33;6.03;;;9.80;99.90;;;;;;6157875;23;20684;-94
2023/05/12 03:10:11;;;;;;;11.70;6.77;;;9.80;99.90;;;;;;6157472;23;20177;-94
2023/05/12 03:12:38;;;;;;;12.43;6.30;;;9.80;99.90;;;;;;6157156;23;20639;-93
2023/05/12 03:15:05;;;;;;;12.80;6.43;;;9.80;99.90;;;;;;6157690;23;20537;-92
2023/05/12 03:17:32;;;;;;;8.67;6.17;;;9.80;99.90;;;;;;6157718;23;20177;-92
2023/05/12 03:19:59;;;;;;;11.10;6.30;;;9.80;99.90;;;;;;6157436;23;20162;-93
2023/05/12 03:22:26;;;;;;;9.17;6.33;;;9.80;99.90;;;;;;6157461;23;20173;-93
2023/05/12 03:24:53;;;;;;;12.10;6.53;;;9.90;99.90;;;;;;6157690;23;20175;-94
2023/05/12 03:27:21;;;;;;;10.17;6.27;;;9.90;99.90;;;;;;6157246;23;20197;-92
2023/05/12 03:29:48;;;;;;;9.67;6.53;;;9.90;99.90;;;;;;6157490;23;20173;-93
2023/05/12 03:32:15;;;;;;;8.17;6.20;;;9.90;99.90;;;;;;6158226;23;20173;-93
2023/05/12 03:34:42;;;;;;;11.53;5.90;;;9.90;99.90;;;;;;6157099;23;20747;-93
2023/05/12 03:37:09;;;;;;;8.00;6.33;;;10.00;99.90;;;;;;6157316;23;20618;-93
2023/05/12 03:39:35;;;;;;;9.10;6.07;;;10.00;99.90;;;;;;6157373;23;20616;-92
2023/05/12 03:42:02;;;;;;;11.53;6.80;;;10.00;99.90;;;;;;6156833;23;20199;-93
2023/05/12 03:44:30;;;;;;;10.33;6.40;;;10.10;99.90;;;;;;6157208;23;20177;-94
2023/05/12 03:46:57;;;;;;;8.00;6.37;;;10.20;99.90;;;;;;6157367;23;20173;-92
2023/05/12 03:49:24;;;;;;;8.50;6.07;;;10.40;99.90;;;;;;6157326;23;20178;-93
2023/05/12 03:51:51;;;;;;;9.33;6.47;;;10.80;99.90;;;;;;6157349;23;20181;-93
2023/05/12 03:54:18;;;;;;;11.17;6.40;;;11.20;99.90;;;;;;6157023;23;20534;-94
2023/05/12 03:56:45;;;;;;;12.63;6.37;;;11.60;99.90;;;;;;6157441;23;20204;-92
2023/05/12 03:59:11;;;;;;;12.57;6.10;;;11.90;99.90;;;;;;6157241;23;20175;-92
2023/05/12 04:01:39;;;;;;;9.00;6.20;;;12.20;99.90;;;;;;6157241;23;20174;-93
2023/05/12 04:04:06;;;;;;;9.57;5.83;;;12.50;99.90;;;;;;6157053;23;20535;-92
2023/05/12 04:06:33;;;;;;;9.97;6.33;;;12.70;99.90;;;;;;6156954;23;20221;-93
2023/05/12 04:09:00;;;;;;;10.40;6.50;;;13.00;99.90;;;;;;6156828;23;20257;-94
2023/05/12 04:11:27;;;;;;;10.37;5.97;;;13.20;99.90;;;;;;6157050;23;20174;-93
2023/05/12 04:13:54;;;;;;;9.17;6.10;;;13.40;99.90;;;;;;6157359;23;20196;-94
2023/05/12 04:16:21;;;;;;;9.43;6.00;;;13.60;99.90;;;;;;6157306;23;20234;-93
2023/05/12 04:18:49;;;;;;;7.47;5.90;;;13.80;99.90;;;;;;6157205;23;20210;-96
2023/05/12 04:21:16;;;;;;;9.57;6.17;;;14.00;99.90;;;;;;6157287;23;20251;-94
2023/05/12 04:23:43;;;;;;;8.73;6.13;;;14.20;99.90;;;;;;6157403;23;20254;-93
2023/05/12 04:26:09;;;;;;;9.20;5.80;;;14.30;99.90;;;;;;6156863;23;20931;-94
2023/05/12 04:28:36;;;;;;;13.10;6.10;;;14.50;99.90;;;;;;6157388;23;20499;-94
2023/05/12 04:31:04;;;;;;;9.60;5.87;;;14.60;99.90;;;;;;6156916;23;20185;-95
2023/05/12 04:33:31;;;;;;;10.03;6.60;;;14.80;99.90;;;;;;6157219;23;20201;-94
2023/05/12 04:35:59;;;;;;;7.73;5.97;;;14.80;99.90;;;;;;6157226;23;20185;-92
2023/05/12 04:38:26;;;;;;;10.47;6.13;;;15.00;99.90;;;;;;6156910;23;20208;-95
2023/05/12 04:40:58;;;;;;;11.07;6.00;;;15.20;99.90;;;;;;6157032;23;20178;-91
2023/05/12 04:43:25;;;;;;;9.53;6.23;;;15.30;99.90;;;;;;6157159;23;20210;-93
2023/05/12 04:45:53;;;;;;;7.15;6.00;;;15.40;99.90;;;;;;6157273;23;20180;-94
2023/05/12 04:48:20;;;;;;;8.48;5.82;;;15.50;99.90;;;;;;6156975;23;20233;-92
2023/05/12 04:50:47;;;;;;;10.53;5.90;;;15.70;99.90;;;;;;6156929;23;20168;-94
2023/05/12 04:53:15;;;;;;;7.28;5.53;;;15.60;99.90;;;;;;6157079;23;20236;-93
2023/05/12 04:55:44;;;;;;;8.40;6.23;;;15.40;99.90;;;;;;6158179;23;20176;-94
2023/05/12 04:58:12;;;;;;;9.90;6.40;;;15.00;99.90;;;;;;6158629;23;20229;-93
2023/05/12 05:00:39;;;;;;;8.47;6.00;;;14.70;99.90;;;;;;6158974;23;20549;-93
2023/05/12 05:03:06;;;;;;;12.93;6.20;;;14.40;99.90;;;;;;6158534;23;20178;-94
2023/05/12 05:05:33;;;;;;;9.23;6.13;;;14.20;99.90;;;;;;6158476;23;20171;-93
2023/05/12 05:08:00;;;;;;;11.40;6.10;;;14.00;99.90;;;;;;6158872;23;20173;-94
2023/05/12 05:10:28;;;;;;;8.67;5.80;;;13.80;99.90;;;;;;6158628;23;20177;-95
2023/05/12 05:12:55;;;;;;;7.90;5.70;;;13.70;99.90;;;;;;6158560;23;20172;-94
2023/05/12 05:15:22;;;;;;;11.17;5.70;;;13.70;99.90;;;;;;6158570;23;20198;-94
2023/05/12 05:17:49;;;;;;;10.10;6.10;;;13.60;99.90;;;;;;6158288;23;20226;-95
2023/05/12 05:20:16;;;;;;;9.63;6.37;;;13.60;99.90;;;;;;6158715;23;20551;-93
2023/05/12 05:22:43;;;;;;;11.07;5.90;;;13.60;99.90;;;;;;6158726;23;20262;-93
2023/05/12 05:25:10;;;;;;;11.47;6.10;;;13.60;99.90;;;;;;6158772;23;20168;-94
2023/05/12 05:27:38;;;;;;;13.07;6.03;;;13.60;99.90;;;;;;6157897;23;20206;-93
2023/05/12 05:30:07;;;;;;;11.83;5.87;;;13.60;99.90;;;;;;6158840;23;20172;-94
2023/05/12 05:32:36;;;;;;;8.80;5.60;;;13.60;99.90;;;;;;6158695;23;20177;-93
2023/05/12 05:35:03;;;;;;;8.60;6.30;;;13.60;99.90;;;;;;6157788;23;20204;-93
2023/05/12 05:37:30;;;;;;;9.60;6.17;;;13.70;99.90;;;;;;6158291;23;20172;-91
2023/05/12 05:39:56;;;;;;;9.47;6.30;;;13.80;99.90;;;;;;6158680;23;20178;-94
2023/05/12 05:42:23;;;;;;;10.90;6.23;;;13.80;99.90;;;;;;6158464;23;20184;-93
2023/05/12 05:44:51;;;;;;;8.13;5.93;;;13.90;99.90;;;;;;6158365;23;20195;-94
2023/05/12 05:47:18;;;;;;;10.57;5.90;;;13.90;99.90;;;;;;6158343;23;20271;-94
2023/05/12 05:49:45;;;;;;;8.53;5.93;;;14.00;99.90;;;;;;6158278;23;20268;-94
2023/05/12 05:52:12;;;;;;;8.63;5.80;;;14.00;99.90;;;;;;6158134;23;20169;-94
2023/05/12 05:54:38;;;;;;;9.93;5.97;;;14.10;99.90;;;;;;6158202;23;20512;-94
2023/05/12 05:57:05;;;;;;;11.47;5.67;;;14.20;99.90;;;;;;6159273;23;20179;-94
2023/05/12 05:59:32;;;;;;;8.03;5.47;;;14.30;99.90;;;;;;6159192;23;20173;-93
2023/05/12 06:02:00;;;;;;;9.73;5.53;;;14.40;99.90;;;;;;6158638;23;20502;-93
2023/05/12 06:04:27;;;;;;;10.27;6.03;;;14.40;99.90;;;;;;6158073;23;20257;-94
2023/05/12 06:06:54;;;;;;;10.63;5.37;;;14.50;99.90;;;;;;6157912;23;20265;-95
2023/05/12 06:09:21;;;;;;;12.10;5.23;;;14.60;99.90;;;;;;6158176;23;20185;-94
2023/05/12 06:11:48;;;;;;;10.27;5.40;;;14.70;99.90;;;;;;6158207;23;20171;-93
2023/05/12 06:14:14;;;;;;;9.37;5.30;;;14.80;99.90;;;;;;6158062;23;20520;-95
2023/05/12 06:16:41;;;;;;;11.53;5.30;;;14.90;99.90;;;;;;6157651;23;20234;-94
2023/05/12 06:19:10;;;;;;;7.63;4.50;;;15.00;99.90;;;;;;6157783;23;20178;-93
2023/05/12 06:21:37;;;;;;;10.50;5.27;;;15.10;99.90;;;;;;6157868;23;20220;-93
2023/05/12 06:24:04;;;;;;;11.47;6.27;;;15.20;99.90;;;;;;6157690;23;20658;-94
2023/05/12 06:26:31;;;;;;;7.38;4.97;;;15.30;99.90;;;;;;6157999;23;20226;-94
2023/05/12 06:28:57;;;;;;;9.30;5.37;;;15.40;99.90;;;;;;6157686;23;20168;-93
2023/05/12 06:31:24;;;;;;;9.00;5.38;;;15.50;99.90;;;;;;6157645;23;20173;-94
2023/05/12 06:33:51;;;;;;;8.90;4.90;;;15.60;99.90;;;;;;6157670;23;20178;-93
2023/05/12 06:36:19;;;;;;;7.10;5.13;;;15.70;99.90;;;;;;6157849;23;20172;-95
2023/05/12 06:38:46;;;;;;;8.35;5.13;;;15.80;99.90;;;;;;6157851;23;20251;-94
2023/05/12 06:41:13;;;;;;;8.55;5.05;;;15.90;99.90;;;;;;6157735;23;20172;-94
2023/05/12 06:43:39;;;;;;;8.82;5.20;;;15.90;99.90;;;;;;6158034;23;20179;-95
2023/05/12 06:46:07;;;;;;;8.30;5.10;;;16.10;99.90;;;;;;6157725;23;20176;-94
2023/05/12 06:48:34;;;;;;;9.82;5.53;;;16.20;99.90;;;;;;6157307;23;20210;-95
2023/05/12 06:51:01;;;;;;;9.52;5.55;;;16.30;99.90;;;;;;6158086;23;20173;-95
2023/05/12 06:53:29;;;;;;;10.00;5.25;;;16.40;99.90;;;;;;6157728;23;20255;-94
2023/05/12 06:55:56;;;;;;;10.18;5.40;;;16.50;99.90;;;;;;6157123;23;20671;-95
2023/05/12 06:58:22;;;;;;;9.13;5.20;;;16.50;99.90;;;;;;6157802;23;20195;-95
2023/05/12 07:00:49;;;;;;;8.90;5.13;;;16.50;99.90;;;;;;6157992;23;20256;-94
2023/05/12 07:03:16;;;;;;;7.68;5.38;;;16.50;99.90;;;;;;6157051;23;20176;-94
2023/05/12 07:05:43;;;;;;;6.60;5.50;;;16.60;99.90;;;;;;6157618;23;20170;-95
2023/05/12 07:08:10;;;;;;;8.68;4.72;;;16.70;99.90;;;;;;6157296;23;20174;-94
2023/05/12 07:10:38;;;;;;;7.10;4.85;;;16.80;99.90;;;;;;6157873;23;20208;-95
2023/05/12 07:13:06;;;;;;;7.45;5.15;;;16.90;99.90;;;;;;6157567;23;20180;-96
2023/05/12 07:15:33;;;;;;;12.43;5.10;;;16.90;99.90;;;;;;6157345;23;20194;-94
2023/05/12 07:17:59;;;;;;;7.07;5.10;;;16.90;99.90;;;;;;6156991;23;20171;-93
2023/05/12 07:20:26;;;;;;;7.40;4.90;;;16.90;99.90;;;;;;6157103;23;20170;-95
2023/05/12 07:22:53;;;;;;;8.45;4.85;;;17.00;99.90;;;;;;6157621;23;20550;-95
2023/05/12 07:25:20;;;;;;;6.40;5.25;;;17.00;99.90;;;;;;6157633;23;20171;-93
2023/05/12 07:27:49;;;;;;;8.18;5.07;;;17.10;99.90;;;;;;6156791;23;20201;-94
2023/05/12 07:30:16;;;;;;;11.18;4.78;;;17.10;99.90;;;;;;6156840;23;20166;-95
2023/05/12 07:32:43;;;;;;;10.98;4.57;;;17.20;99.90;;;;;;6157272;23;20170;-94
2023/05/12 07:35:10;;;;;;;7.55;5.32;;;17.30;99.90;;;;;;6157414;23;20194;-94
2023/05/12 07:37:37;;;;;;;9.07;4.85;;;17.30;99.90;;;;;;6157393;23;20569;-96
2023/05/12 07:40:04;;;;;;;9.63;5.03;;;17.40;99.90;;;;;;6157333;23;20177;-94
2023/05/12 07:42:31;;;;;;;6.55;4.65;;;17.40;99.90;;;;;;6157330;23;20510;-96
2023/05/12 07:44:59;;;;;;;17.48;5.32;;;17.50;99.90;;;;;;6157451;23;20168;-95
2023/05/12 07:47:27;;;;;;;12.05;4.55;;;17.70;99.90;;;;;;6157706;23;20174;-95
2023/05/12 07:49:54;;;;;;;7.22;4.43;;;17.90;99.90;;;;;;6157169;23;20186;-94
2023/05/12 07:52:21;;;;;;;7.82;4.68;;;17.90;99.90;;;;;;6157433;23;20241;-95
2023/05/12 07:54:47;;;;;;;5.97;4.40;;;18.00;99.90;;;;;;6157155;23;20186;-95
2023/05/12 07:57:14;;;;;;;7.20;4.20;;;18.10;99.90;;;;;;6157004;23;20174;-94
2023/05/12 07:59:41;;;;;;;8.23;4.57;;;18.10;99.90;;;;;;6156841;23;20181;-95
2023/05/12 08:02:09;;;;;;;6.45;4.47;;;18.20;99.90;;;;;;6157237;23;20181;-95
2023/05/12 08:04:36;;;;;;;6.85;4.63;;;18.20;99.90;;;;;;6157278;23;20170;-95
2023/05/12 08:07:03;;;;;;;6.88;4.13;;;18.30;99.90;;;;;;6157492;23;20173;-94
2023/05/12 08:09:30;;;;;;;7.53;4.55;;;18.40;99.90;;;;;;6157321;23;20170;-95
2023/05/12 08:11:57;;;;;;;7.00;4.00;;;18.50;99.90;;;;;;6157315;23;20170;-94
2023/05/12 08:14:24;;;;;;;9.43;4.72;;;18.60;99.90;;;;;;6156688;23;20170;-95
2023/05/12 08:16:51;;;;;;;8.10;4.78;;;18.70;99.90;;;;;;6156853;23;20261;-94
2023/05/12 08:19:19;;;;;;;7.32;4.57;;;18.70;99.90;;;;;;6157487;23;20252;-94
2023/05/12 08:21:46;;;;;;;6.82;4.20;;;18.80;99.90;;;;;;6156924;23;20632;-95
2023/05/12 08:24:13;;;;;;;9.18;4.35;;;18.80;99.90;;;;;;6157296;23;20511;-95
2023/05/12 08:26:39;;;;;;;10.50;4.70;;;18.90;99.90;;;;;;6157005;23;20222;-95
2023/05/12 08:29:07;;;;;;;8.27;4.38;;;19.00;99.90;;;;;;6157158;23;20174;-95
2023/05/12 08:31:34;;;;;;;8.18;4.38;;;19.10;99.90;;;;;;6158638;23;20625;-95
2023/05/12 08:34:01;;;;;;;8.02;3.95;;;19.10;99.90;;;;;;6159108;23;20202;-95
2023/05/12 08:36:29;;;;;;;8.82;4.40;;;19.20;99.90;;;;;;6158751;23;20186;-95
2023/05/12 08:38:56;;;;;;;7.03;4.28;;;19.30;99.90;;;;;;6158680;23;20184;-96
2023/05/12 08:41:36;;;;;;;7.22;4.10;;;19.40;99.90;;;;;;6158775;23;20499;-96
2023/05/12 08:44:05;;;;;;;5.97;4.03;;;19.40;99.90;;;;;;6158928;23;20467;-94
2023/05/12 08:46:32;;;;;;;5.68;4.00;;;19.60;99.90;;;;;;6159220;23;20168;-96
2023/05/12 08:49:01;;;;;;;10.15;4.18;;;19.70;99.90;;;;;;6158936;23;20180;-95
2023/05/12 08:51:32;;;;;;;8.60;3.45;;;19.80;99.90;;;;;;6158737;23;20171;-96
2023/05/12 08:53:59;;;;;;;7.60;3.35;;;20.00;99.90;;;;;;6158909;23;20154;-93
2023/05/12 08:56:26;;;;;;;6.90;3.55;;;20.10;99.90;;;;;;6158883;23;20198;-94
2023/05/12 08:58:55;;;;;;;5.95;3.70;;;20.10;99.90;;;;;;6158457;23;20667;-96
2023/05/12 09:01:22;;;;;;;6.97;2.78;;;20.10;99.90;;;;;;6158886;23;20176;-94
2023/05/12 09:03:51;;;;;;;3.60;3.08;;;20.10;99.70;;;;;;6158445;23;20176;-96
2023/05/12 09:06:18;;;;;;;7.05;2.85;;;20.10;95.10;;;;;;6158799;23;20201;-94
2023/05/12 09:08:46;;;;;;;4.10;2.85;;;20.20;93.80;;;;;;6158747;23;20175;-93
2023/05/12 09:11:14;;;;;;;5.75;3.05;;;20.20;94.00;;;;;;6158404;23;20183;-95
2023/05/12 09:13:50;;;;;;;8.73;3.30;;;20.30;94.10;;;;;;6158466;23;20249;-95
2023/05/12 09:16:22;;;;;;;7.28;3.10;;;20.40;92.10;;;;;;6158827;23;20696;-95
2023/05/12 09:18:52;;;;;;;4.68;3.00;;;20.40;91.70;;;;;;6158388;23;20159;-96
2023/05/12 09:21:19;;;;;;;4.63;2.70;;;20.50;91.40;;;;;;6159001;23;20315;-95
2023/05/12 09:23:54;;;;;;;5.30;3.00;;;20.50;85.80;;;;;;6158071;23;20184;-94
2023/05/12 09:26:22;;;;;;;5.38;3.15;;;20.60;83.70;;;;;;6158081;23;20190;-96
2023/05/12 09:28:49;;;;;;;9.82;3.28;;;20.60;83.00;;;;;;6158283;23;20198;-96
2023/05/12 09:31:17;;;;;;;13.95;3.08;;;20.70;77.50;;;;;;6158739;23;20181;-95
2023/05/12 09:33:44;;;;;;;9.48;3.25;;;20.80;76.60;;;;;;6158605;23;20177;-94
2023/05/12 09:36:13;;;;;;;5.75;2.83;;;20.90;72.80;;;;;;6158363;23;20201;-93
2023/05/12 09:38:40;;;;;;;4.43;3.30;;;20.90;75.70;;;;;;6158284;23;20181;-95
2023/05/12 09:41:08;;;;;;;7.57;2.78;;;20.90;69.30;;;;;;6157758;23;20644;-95
2023/05/12 09:43:36;;;;;;;11.65;3.45;;;20.90;69.00;;;;;;6158450;23;20171;-94
2023/05/12 09:46:05;;;;;;;4.95;3.10;;;20.90;66.10;;;;;;6158265;23;20166;-95
2023/05/12 09:48:32;;;;;;;4.90;3.00;;;20.90;70.50;;;;;;6157916;23;20198;-95
2023/05/12 09:50:59;;;;;;;4.72;3.00;;;20.80;66.50;;;;;;6158565;23;20174;-95
2023/05/12 09:53:26;;;;;;;4.55;3.10;;;20.80;65.40;;;;;;6158482;23;20261;-94
2023/05/12 09:55:53;;;;;;;4.28;2.83;;;20.80;66.60;;;;;;6158155;23;20197;-95
2023/05/12 09:58:23;;;;;;;6.03;2.92;;;20.90;63.20;;;;;;6158220;23;20174;-96
2023/05/12 10:00:53;;;;;;;5.22;2.65;;;21.00;64.00;;;;;;6158191;23;20177;-95
2023/05/12 10:03:23;;;;;;;5.63;3.13;;;21.00;62.20;;;;;;6158355;23;20174;-96
2023/05/12 10:05:55;;;;;;;7.88;2.97;;;21.20;62.30;;;;;;6157975;23;20170;-96
2023/05/12 10:08:26;;;;;;;4.97;2.88;;;21.20;60.70;;;;;;6158735;23;20161;-96
2023/05/12 10:10:56;;;;;;;11.30;2.90;;;21.30;58.60;;;;;;6158116;23;20154;-96
2023/05/12 10:13:25;;;;;;;9.38;3.03;;;21.30;57.80;;;;;;6158743;23;20174;-95
2023/05/12 10:15:54;;;;;;;6.68;3.05;;;21.20;53.40;;;;;;6158965;23;20277;-96
2023/05/12 10:18:21;;;;;;;6.45;3.08;;;21.20;58.50;;;;;;6158169;23;20170;-93
2023/05/12 10:20:51;;;;;;;6.05;2.88;;;21.20;56.90;;;;;;6158173;23;20708;-96
2023/05/12 10:23:18;;;;;;;4.72;2.40;;;21.30;58.10;;;;;;6158941;23;20257;-96
2023/05/12 10:25:45;;;;;;;6.60;2.78;;;21.40;60.00;;;;;;6159361;23;20177;-96
2023/05/12 10:28:12;;;;;;;4.75;2.60;;;21.60;56.60;;;;;;6159539;23;20200;-96
2023/05/12 10:30:41;;;;;;;8.18;2.88;;;21.60;50.60;;;;;;6160731;23;20205;-96
2023/05/12 10:33:10;;;;;;;4.88;2.70;;;21.60;56.80;;;;;;6160895;23;20174;-96
2023/05/12 10:35:39;;;;;;;9.75;2.70;;;21.70;55.30;;;;;;6164506;23;20248;-96
2023/05/12 10:38:07;;;;;;;6.45;2.92;;;21.70;52.80;;;;;;6160950;23;20181;-96
2023/05/12 10:40:34;;;;;;;4.82;2.58;;;21.70;52.60;;;;;;6174087;23;20196;-96
2023/05/12 10:43:02;;;;;;;9.07;2.80;;;21.70;43.40;;;;;;6168963;23;20621;-95
2023/05/12 10:45:34;;;;;;;5.40;2.50;;;21.70;39.00;;;;;;6176501;23;20218;-96
2023/05/12 10:48:07;;;;;;;8.77;3.10;;;21.70;71.40;;;;;;6177138;23;20161;-96
2023/05/12 10:50:34;;;;;;;5.47;3.00;;;21.70;44.10;;;;;;6174164;23;20167;-96
2023/05/12 10:53:01;;;;;;;4.88;2.53;;;21.70;37.90;;;;;;6174788;23;20167;-96
2023/05/12 10:55:33;;;;;;;6.57;2.75;;;21.70;37.90;;;;;;6176881;23;20193;-96
2023/05/12 10:58:10;;;;;;;3.50;2.28;;;21.90;51.50;;;;;;6171786;23;20214;-96
2023/05/12 11:00:45;;;;;;;5.63;2.60;;;22.00;52.30;;;;;;6175094;23;20231;-96
2023/05/12 11:03:15;;;;;;;4.15;2.60;;;21.90;47.90;;;;;;6175023;23;20266;-96
2023/05/12 11:05:43;;;;;;;5.70;2.78;;;21.80;45.70;;;;;;6179290;23;20182;-96
2023/05/12 11:08:10;;;;;;;3.75;2.30;;;21.90;35.00;;;;;;6169252;23;20201;-96
2023/05/12 11:10:37;;;;;;;3.35;2.42;;;21.90;34.10;;;;;;6167758;23;20197;-96
2023/05/12 11:13:04;;;;;;;15.57;3.33;;;21.80;44.50;;;;;;6178472;23;20163;-95
2023/05/12 11:15:33;;;;;;;5.03;2.60;;;21.80;38.90;;;;;;6173995;23;20226;-96
2023/05/12 11:18:02;;;;;;;7.70;2.70;;;21.90;35.30;;;;;;6176063;23;20181;-96
2023/05/12 11:20:31;;;;;;;4.85;2.58;;;21.90;42.80;;;;;;6170088;23;20184;-96
2023/05/12 11:25:37;;;;;;;4.97;2.72;;;22.10;32.50;;;;;;6173223;23;20193;-96
2023/05/12 11:28:04;;;;;;;28.15;3.70;;;22.10;51.50;;;;;;6173170;23;20186;-96
2023/05/12 11:30:31;;;;;;;9.30;2.80;;;22.20;54.50;;;;;;6178748;23;20181;-96
2023/05/12 11:33:01;;;;;;;5.50;2.65;;;22.20;63.40;;;;;;6176786;23;20157;-96
2023/05/12 11:35:32;;;;;;;3.08;2.70;;;22.20;61.00;;;;;;6175370;23;20159;-96
2023/05/12 11:38:01;;;;;;;7.32;2.70;;;22.10;65.30;;;;;;6170689;23;20209;-96
2023/05/12 11:40:28;;;;;;;4.63;2.30;;;22.10;71.50;;;;;;6168685;23;20209;-96
2023/05/12 11:42:55;;;;;;;7.28;2.30;;;22.10;99.90;;;;;;6176141;23;20174;-96
2023/05/12 11:45:24;;;;;;;5.40;2.35;;;22.20;90.90;;;;;;6174129;23;20188;-93
2023/05/12 11:47:52;;;;;;;5.55;2.55;;;22.20;99.90;;;;;;6173932;23;20177;-96
2023/05/12 11:50:23;;;;;;;7.20;2.42;;;22.20;99.90;;;;;;6166095;23;20197;-96
2023/05/12 11:52:53;;;;;;;12.05;2.45;;;22.20;99.90;;;;;;6170748;23;20167;-96
2023/05/12 11:55:22;;;;;;;6.90;2.60;;;22.10;99.90;;;;;;6174348;23;20225;-96
2023/05/12 11:58:00;;;;;;;6.93;2.53;;;22.10;99.90;;;;;;6179147;23;20199;-96
2023/05/12 12:00:29;;;;;;;5.40;2.60;;;22.10;99.90;;;;;;6175545;23;20197;-96
2023/05/12 12:03:12;;;;;;;5.90;2.45;;;22.20;99.90;;;;;;6168166;23;20201;-96
2023/05/12 12:05:40;;;;;;;5.82;2.55;;;22.30;99.90;;;;;;6177816;23;20170;-96
2023/05/12 12:08:11;;;;;;;4.35;2.60;;;22.40;99.90;;;;;;6176636;23;20177;-96
2023/05/12 12:10:38;;;;;;;4.30;2.50;;;22.40;99.90;;;;;;6175884;23;20146;-95
2023/05/12 12:13:05;;;;;;;29.23;3.20;;;22.30;99.90;;;;;;6178617;23;20155;-96
2023/05/12 12:15:32;;;;;;;4.43;2.50;;;22.20;99.90;;;;;;6182612;23;20162;-96
2023/05/12 12:17:59;;;;;;;6.65;2.50;;;22.20;99.90;;;;;;6178273;23;20554;-96
2023/05/12 12:20:26;;;;;;;8.90;2.40;;;22.20;99.90;;;;;;6176322;23;20629;-96
2023/05/12 12:22:53;;;;;;;4.03;2.22;;;22.30;99.90;;;;;;6168655;23;20208;-96
2023/05/12 12:25:22;;;;;;;6.15;2.60;;;22.30;99.90;;;;;;6178886;23;20139;-96
2023/05/12 12:27:51;;;;;;;4.07;2.45;;;22.30;99.90;;;;;;6179969;23;20170;-96
2023/05/12 12:30:18;;;;;;;2.88;2.30;;;22.30;99.90;;;;;;6173007;23;20197;-96
2023/05/12 12:32:45;;;;;;;7.50;2.70;;;22.30;99.90;;;;;;6168340;23;20167;-96
2023/05/12 12:35:13;;;;;;;7.72;2.67;;;22.30;99.90;;;;;;6169722;23;20185;-96
2023/05/12 12:37:41;;;;;;;6.88;2.60;;;22.20;99.90;;;;;;6173373;23;20233;-96
2023/05/12 12:40:09;;;;;;;4.35;2.60;;;22.30;99.90;;;;;;6181212;23;20178;-96
2023/05/12 12:42:40;;;;;;;17.55;3.95;;;22.30;99.90;;;;;;6177268;23;20175;-96
2023/05/12 12:45:11;;;;;;;3.70;2.63;;;22.30;99.90;;;;;;6172921;23;20241;-96
2023/05/12 12:47:38;;;;;;;13.23;2.75;;;22.40;99.90;;;;;;6172836;23;20700;-96
2023/05/12 12:52:31;;;;;;;7.22;2.50;;;22.40;99.90;;;;;;6169417;23;20665;-96